Home > Products > Valid Products > MTR

000
SAUS41 KRLX 180500 COR
MTRCKB
METAR KCKB 180453Z 29008KT 10SM UP OVC022 M01/M06 A3017 RMK AO2
UPB46 SLP221 P0000 T10111056 400561011





    US Dept of Commerce
    National Oceanic and Atmospheric Administration
    National Weather Service
    1325 East West Highway
    Silver Spring, MD 20910
    Page Author: NWS Internet Services Team
Disclaimer
Information Quality
Credits
Glossary
Privacy Policy
Freedom of Information Act (FOIA)
About Us
Career Opportunities